KBBD/BBD METAR and TAF weather

Enter ICAO airport designator
Station Type Date Time Source
KBBD METAR 2019/04/18 20:55 UTC NOAA

KBBD 182055Z AUTO 35022G36KT 10SM CLR 22/03 A2996 RMK AO2


Station Type Date Time Source
KBBD Decoded METAR 2019/04/18 20:55 UTC NOAA

Brady, Curtis Field Airport, TX, United States (KBBD) 31-10-45N 099-19-26W
Apr 18, 2019 - 04:55 PM EDT / 2019.04.18 2055 UTC
Wind: from the N (350 degrees) at 25 MPH (22 KT) gusting to 41 MPH (36 KT):0
Visibility: 10 mile(s):0
Sky conditions: clear
Temperature: 71 F (22 C)
Dew Point: 37 F (3 C)
Relative Humidity: 28%
Pressure (altimeter): 29.96 in. Hg (1014 hPa)
ob: KBBD 182055Z AUTO 35022G36KT 10SM CLR 22/03 A2996 RMK AO2
cycle: 21

Station Type Date Time Source
KBBD TAF 2019/04/18 18:22 UTC NOAA

TAF KBBD 181720Z 1818/1918 34016G26KT P6SM BKN025
FM182000 34022G30KT P6SM SCT040
FM190100 34004KT P6SM SCT250

Example: see airport list